Victory Chimes — WAV4111 — position and weather

sailwx.info

Track history (hours):
 
Tides and Currents Weather Stations Pressure Air Temp Water Temp Dewpoint Dewpoint Depression Visibility Wind Speed Wind Dir Waves Ship Positions

Victory Chimes

Owner: VICTORY CHIMES INC, ROCKLAND, ME. More information available from US FCC via Universal Licensing System and Coast Guard Vessel Documentation Center.

Last reported at 2017-Sep-19 16:09 UTC. Time now 2017-Sep-25 11:47 UTC.
Position N 44°06' W 069°05'.

Length 38 m.

Type: Sailing vessel. MMSI: 367093020.

Date/timePositionNaut miles runAvg speedWind from/ knotsBaromVisibWave heightAir tempDewpointWater temp
2017-Sep-19 16:09N 44°06' W 069°05'0 1.7
2017-Sep-19 15:58N 44°06' W 069°05'1 2.4
2017-Sep-19 15:21N 44°07' W 069°04'2 4.7
2017-Sep-19 14:51N 44°10' W 069°03'2 4.5
2017-Sep-19 14:30N 44°11' W 069°02'2 4.4
2017-Sep-19 14:00N 44°13' W 068°60'1 0.1
2017-Sep-18 16:37N 44°14' W 069°00'1 3.8
2017-Sep-18 16:28N 44°13' W 069°01'2 3.5
2017-Sep-18 16:00N 44°12' W 069°01'2 4.0
2017-Sep-18 15:30N 44°11' W 068°58'3 4.3
2017-Sep-18 14:55N 44°10' W 068°55'4 0.2
2017-Sep-17 16:28N 44°06' W 068°56'2 3.6
2017-Sep-17 15:51N 44°06' W 068°59'2 3.8
2017-Sep-17 15:28N 44°06' W 069°01'2 3.8
2017-Sep-17 14:56N 44°06' W 069°04'  
2017-Sep-15 04:06N 44°05' W 069°05'0 0.1
2017-Sep-14 21:43N 44°06' W 069°05'1 3.9
2017-Sep-14 21:23N 44°06' W 069°03'1 2.1
2017-Sep-14 20:49N 44°07' W 069°04'2 5.8
2017-Sep-14 20:29N 44°08' W 069°01'1 2.7
2017-Sep-14 19:58N 44°08' W 068°59'1 2.6
2017-Sep-14 19:29N 44°09' W 068°58'2 3.1
2017-Sep-14 18:58N 44°09' W 068°56'  
2017-Sep-11 16:23N 44°09' W 069°01'  
Track history (hours):
 
Tides and Currents Weather Stations Pressure Air Temp Water Temp Dewpoint Dewpoint Depression Visibility Wind Speed Wind Dir Waves Ship Positions

Victory Chimes

Owner: VICTORY CHIMES INC, ROCKLAND, ME. More information available from US FCC via Universal Licensing System and Coast Guard Vessel Documentation Center.

Last reported at 2017-Sep-19 16:09 UTC. Time now 2017-Sep-25 11:47 UTC.
Position N 44°06' W 069°05'.

Length 38 m.

Type: Sailing vessel. MMSI: 367093020.

Date/timePositionNaut miles runAvg speedWind from/ knotsBaromVisibWave heightAir tempDewpointWater temp
2017-Sep-19 16:09N 44°06' W 069°05'0 1.7
2017-Sep-19 15:58N 44°06' W 069°05'1 2.4
2017-Sep-19 15:21N 44°07' W 069°04'2 4.7
2017-Sep-19 14:51N 44°10' W 069°03'2 4.5
2017-Sep-19 14:30N 44°11' W 069°02'2 4.4
2017-Sep-19 14:00N 44°13' W 068°60'1 0.1
2017-Sep-18 16:37N 44°14' W 069°00'1 3.8
2017-Sep-18 16:28N 44°13' W 069°01'2 3.5
2017-Sep-18 16:00N 44°12' W 069°01'2 4.0
2017-Sep-18 15:30N 44°11' W 068°58'3 4.3
2017-Sep-18 14:55N 44°10' W 068°55'4 0.2
2017-Sep-17 16:28N 44°06' W 068°56'2 3.6
2017-Sep-17 15:51N 44°06' W 068°59'2 3.8
2017-Sep-17 15:28N 44°06' W 069°01'2 3.8
2017-Sep-17 14:56N 44°06' W 069°04'  
2017-Sep-15 04:06N 44°05' W 069°05'0 0.1
2017-Sep-14 21:43N 44°06' W 069°05'1 3.9
2017-Sep-14 21:23N 44°06' W 069°03'1 2.1
2017-Sep-14 20:49N 44°07' W 069°04'2 5.8
2017-Sep-14 20:29N 44°08' W 069°01'1 2.7
2017-Sep-14 19:58N 44°08' W 068°59'1 2.6
2017-Sep-14 19:29N 44°09' W 068°58'2 3.1
2017-Sep-14 18:58N 44°09' W 068°56'  
2017-Sep-11 16:23N 44°09' W 069°01'  

Dump ship's entire track history